Search for airport 
image banner adimage banner adimage banner ad
image banner ad

49CN - Rancho Tehama

Located in Red Bluff, United States

ICAO - 49CN, IATA -

Data provided by Airmate  

General information

Coordinates: N40°0'58" W122°23'24"
Elevation is 550 feet MSL.
Magnetic variation is 17° East
View others Airports in California

Operational data

Special qualification required
Current time UTC:
Current local time:
Weather at : KRBL - Red Bluff Muni ( 19 km )
METAR: KRBL 210254Z AUTO 32008KT 10SM CLR 30/M01 A2992 RMK AO2 SLP129 T03001006 55002
TAF: KRBL 202320Z 2100/2124 34015G25KT P6SM SKC FM210200 33008KT P6SM SKC FM212100 16006KT P6SM SKC
View NOTAMs / SUP AIP / TFR affecting this airport [VIEW]
Communications frequencies: [VIEW]

Runways:

RWY identifierQFULength (ft)Width (ft)SurfaceLDA (ft)
09375040OTHER
27375040OTHER

Airport contact information

Address: Red Bluff United States

Satellite view of 49CN